WetterOnline ( https://www.wetteronline.de )

Wetter aktuell Karlsbad

Aktuelles Wetter: Karlsbad (607m)

6-stündlich | Neueste Meldungen
Ortszeit Temperatur Wetter
Fr, 22.01. 19:00 3.9° C leicht bewölkt
Fr, 22.01. 1:00 3.6° C wolkig
Do, 21.01. 1:00 3.1° C wolkig
Mi, 20.01. 19:00 -0.3° C wolkig
Mi, 20.01. 13:00 2.1° C leicht bewölkt
Mi, 20.01. 7:00 -0.9° C leicht bewölkt
Mi, 20.01. 1:00 1.4° C bedeckt
Di, 19.01. 19:00 0.1° C leichter Schneefall
Ortszeit Temperatur Wetter
Sa, 23.01. 14:00 0.2° C leichter Schneefall
Sa, 23.01. 13:30 0° C leichter Schneefall
Sa, 23.01. 13:00 0° C bedeckt
Sa, 23.01. 12:30 0° C bewölkt
Sa, 23.01. 12:00 -0.3° C bedeckt
Sa, 23.01. 11:30 0° C leichter Schneefall
Sa, 23.01. 11:00 -0.6° C leichter Schneefall
Sa, 23.01. 10:30 -1° C leichter Schneefall
Ortszeit Relative Feuchte Sichtweite
Fr, 22.01. 19:00 79% 40 km
Fr, 22.01. 1:00 70% 30 km
Do, 21.01. 1:00 71% 25 km
Mi, 20.01. 19:00 93% 25 km
Mi, 20.01. 13:00 80% 50 km
Mi, 20.01. 7:00 96% 20 km
Mi, 20.01. 1:00 96% 10 km
Di, 19.01. 19:00 96% 10 km
Ortszeit Relative Feuchte Sichtweite
Sa, 23.01. 14:00 88% 20 km
Sa, 23.01. 13:30 100% >10 km
Sa, 23.01. 13:00 100% >10 km
Sa, 23.01. 12:30 100% >10 km
Sa, 23.01. 12:00 92% 22 km
Sa, 23.01. 11:30 93% >10 km
Sa, 23.01. 11:00 99% 20 km
Sa, 23.01. 10:30 100% 7 km
Ortszeit Niederschlagsmenge Niederschlagsart
Fr, 22.01. 19:00 0.1 l/m2 in 12 Std. Regen
Fr, 22.01. 1:00 0.1 l/m2 in 6 Std. Regen
Do, 21.01. 1:00 0.0 l/m2 in 6 Std. -
Mi, 20.01. 19:00 0.0 l/m2 in 12 Std. -
Mi, 20.01. 13:00 0.0 l/m2 in 6 Std. -
Mi, 20.01. 7:00 0.1 l/m2 in 12 Std. -
Mi, 20.01. 1:00 0.1 l/m2 in 6 Std. Schnee
Di, 19.01. 19:00 4 l/m2 in 12 Std. Schnee
Ortszeit Niederschlagsmenge Niederschlagsart
Sa, 23.01. 14:00 0.1 l/m2 in 1 Std. Schnee
Sa, 23.01. 13:30 keine Meldung -
Sa, 23.01. 13:00 keine Meldung -
Sa, 23.01. 12:30 keine Meldung -
Sa, 23.01. 12:00 0.1 l/m2 in 1 Std. Schnee
Sa, 23.01. 11:30 keine Meldung -
Sa, 23.01. 11:00 0.1 l/m2 in 1 Std. Schnee
Sa, 23.01. 10:30 keine Meldung -
Ortszeit Stärke Spitze Richtung
km/h Bft. km/h Grad Sektor
Fr, 22.01. 19:00 7 2 40 40° NO
Fr, 22.01. 1:00 4 1 - 170° S
Do, 21.01. 1:00 4 1 - 170° S
Mi, 20.01. 19:00 4 1 - 150° SO
Mi, 20.01. 13:00 4 1 - 330° NW
Mi, 20.01. 7:00 4 1 - 230° SW
Mi, 20.01. 1:00 11 2 47 250° W
Di, 19.01. 19:00 22 4 43 250° W
Ortszeit Stärke Spitze Richtung
km/h Bft. km/h Grad Sektor
Sa, 23.01. 14:00 14 3 - 250° W
Sa, 23.01. 13:30 11 2 - 250° W
Sa, 23.01. 13:00 11 2 - 250° W
Sa, 23.01. 12:30 11 2 - 260° W
Sa, 23.01. 12:00 11 2 - 250° W
Sa, 23.01. 11:30 15 3 - 260° W
Sa, 23.01. 11:00 14 3 - 270° W
Sa, 23.01. 10:30 17 3 - 280° W
Ortszeit Untergrenze Bedeckung Gattung
total tief tief mittel hoch
Fr, 22.01. 19:00 2400 m 6/8 6/8 - As Ci
Fr, 22.01. 1:00 2700 m 8/8 8/8 - As -
Do, 21.01. 1:00 4200 m 8/8 8/8 - As -
Mi, 20.01. 19:00 3600 m 7/8 7/8 - As Ci
Mi, 20.01. 13:00 3300 m 5/8 1/8 - Ac Ci
Mi, 20.01. 7:00 3300 m 4/8 3/8 - Ac Ci
Mi, 20.01. 1:00 300 m 8/8 8/8 Sc - -
Di, 19.01. 19:00 240 m 8/8 8/8 Sc - -
Ortszeit Bedeckungsgrad in Achtel und Wolkenuntergrenze
Sa, 23.01. 14:00 3(150m) 5(750m)
Sa, 23.01. 13:30 3-4(180m) 5-7(1080m) 7(1290m)
Sa, 23.01. 13:00 3-4(180m) 5-7(450m) 8(900m)
Sa, 23.01. 12:30 1-2(210m) 5-7(510m) 5-7(690m)
Sa, 23.01. 12:00 4(510m) 6(630m) 8(1200m)
Sa, 23.01. 11:30 3-4(390m) 5-7(510m) 8(780m)
Sa, 23.01. 11:00 3(510m) 6(660m) 8(1080m)
Sa, 23.01. 10:30 5-7(510m) 8(1380m)
Ortszeit Stationsdruck (hPa) Tendenz (hPa in 3 Std.)
Fr, 22.01. 19:00 925 + 1,0
Fr, 22.01. 1:00 928 - 2,1
Do, 21.01. 1:00 934 - 1,2
Mi, 20.01. 19:00 936 - 0,3
Mi, 20.01. 13:00 937 - 1,4
Mi, 20.01. 7:00 938 - 0,7
Mi, 20.01. 1:00 939 - 0,2
Di, 19.01. 19:00 938 + 0,2
Ortszeit Stationsdruck (hPa) Tendenz (hPa in 3 Std.)
Sa, 23.01. 14:00 926 + 0,9
Sa, 23.01. 13:30 - keine Meldung
Sa, 23.01. 13:00 - keine Meldung
Sa, 23.01. 12:30 - keine Meldung
Sa, 23.01. 12:00 926 + 2,6
Sa, 23.01. 11:30 - keine Meldung
Sa, 23.01. 11:00 925 + 2,5
Sa, 23.01. 10:30 - keine Meldung
Ortszeit Schneehöhe (cm)
Fr, 22.01. 19:00 3
Fr, 22.01. 1:00 -
Do, 21.01. 1:00 -
Mi, 20.01. 19:00 18
Mi, 20.01. 13:00 -
Mi, 20.01. 7:00 18
Mi, 20.01. 1:00 -
Di, 19.01. 19:00 19
Ortszeit Schneehöhe (cm)
Sa, 23.01. 14:00 -
Sa, 23.01. 13:30 -
Sa, 23.01. 13:00 -
Sa, 23.01. 12:30 -
Sa, 23.01. 12:00 -
Sa, 23.01. 11:30 -
Sa, 23.01. 11:00 -
Sa, 23.01. 10:30 -
Link zu dieser Seite / Seite empfehlen

Das Wetter in ...